Time;durP1;ratioP1;P1;durP2;ratioP2;P2;SDS_P1;SDS_P2;PMS_P1;PMS_P2;Temp;Humidity;BMP_temperature;BMP_pressure;BME280_temperature;BME280_humidity;BME280_pressure;Samples;Min_cycle;Max_cycle;Signal;HPM_P1;HPM_P2
2022/11/15 00:00:50;;;;;;;33.37;18.73;;;;;;;6.54;100.00;95026.56;5070871;28;20556;-62
2022/11/15 00:03:17;;;;;;;26.17;15.57;;;;;;;6.52;100.00;95028.38;5070483;28;20188;-60
2022/11/15 00:05:42;;;;;;;22.23;14.40;;;;;;;6.29;100.00;95016.38;5052648;28;20208;-64
2022/11/15 00:08:09;;;;;;;25.07;14.97;;;;;;;6.26;100.00;95034.25;5070324;28;20204;-59
2022/11/15 00:10:34;;;;;;;23.43;13.40;;;;;;;5.98;100.00;95022.47;5070466;28;20215;-62
2022/11/15 00:13:00;;;;;;;20.30;13.30;;;;;;;5.98;100.00;95032.56;5052745;28;20188;-61
2022/11/15 00:15:25;;;;;;;18.87;12.67;;;;;;;6.02;100.00;95028.97;5070285;28;20203;-61
2022/11/15 00:17:50;;;;;;;24.40;13.33;;;;;;;6.17;100.00;95033.09;5052268;28;20193;-59
2022/11/15 00:20:18;;;;;;;23.13;13.40;;;;;;;6.08;100.00;95023.53;5070569;28;20212;-63
2022/11/15 00:22:44;;;;;;;33.33;17.60;;;;;;;6.14;100.00;95035.78;5070261;28;20232;-63
2022/11/15 00:25:09;;;;;;;39.67;22.37;;;;;;;6.16;100.00;95049.13;5070310;28;20592;-60
2022/11/15 00:27:34;;;;;;;39.80;23.60;;;;;;;6.15;100.00;95044.16;5070197;28;20196;-62
2022/11/15 00:30:00;;;;;;;47.47;25.83;;;;;;;6.22;100.00;95048.75;5070248;28;20568;-64
2022/11/15 00:32:25;;;;;;;48.40;28.17;;;;;;;6.24;100.00;95046.94;5052056;28;20304;-62
2022/11/15 00:34:51;;;;;;;46.63;27.63;;;;;;;6.28;100.00;95047.56;5070260;28;20318;-61
2022/11/15 00:37:16;;;;;;;48.27;25.87;;;;;;;6.30;100.00;95045.78;5070164;28;20618;-60
2022/11/15 00:39:49;;;;;;;48.50;27.60;;;;;;;6.46;100.00;95059.88;5073113;28;20212;-63
2022/11/15 00:42:14;;;;;;;44.80;24.80;;;;;;;6.44;100.00;95059.16;5073573;28;20200;-62
2022/11/15 00:44:39;;;;;;;46.10;26.17;;;;;;;6.50;100.00;95061.31;5073468;28;20621;-62
2022/11/15 00:47:05;;;;;;;47.53;25.30;;;;;;;6.50;100.00;95057.97;5073479;28;20189;-59
2022/11/15 00:49:30;;;;;;;48.60;26.80;;;;;;;6.56;100.00;95067.69;5073358;28;20215;-64
2022/11/15 00:51:56;;;;;;;47.00;27.50;;;;;;;6.56;100.00;95062.63;5073208;28;20231;-64
2022/11/15 00:54:21;;;;;;;46.37;27.23;;;;;;;6.35;100.00;95031.13;5073355;28;20695;-61
2022/11/15 00:56:46;;;;;;;47.33;27.23;;;;;;;6.39;100.00;95040.94;5073293;28;20245;-62
2022/11/15 00:59:12;;;;;;;49.43;27.27;;;;;;;6.48;100.00;95055.53;5080553;22;21291;-62
2022/11/15 01:01:37;;;;;;;48.33;28.13;;;;;;;6.36;100.00;95043.66;5073227;28;20204;-62
2022/11/15 01:04:03;;;;;;;47.47;27.90;;;;;;;6.30;100.00;95031.41;5073030;28;20560;-59
2022/11/15 01:06:28;;;;;;;48.93;28.97;;;;;;;6.27;100.00;95019.00;5073196;28;20196;-62
2022/11/15 01:08:53;;;;;;;56.57;30.53;;;;;;;6.31;100.00;95022.13;5073088;28;20572;-62
2022/11/15 01:11:19;;;;;;;57.47;29.93;;;;;;;6.29;100.00;95008.78;5072886;28;20216;-63
2022/11/15 01:13:44;;;;;;;53.53;30.30;;;;;;;6.36;100.00;95013.34;5072935;28;20189;-62
2022/11/15 01:16:13;;;;;;;53.50;28.80;;;;;;;6.40;100.00;95024.09;5054884;28;20193;-61
2022/11/15 01:18:39;;;;;;;67.87;34.03;;;;;;;6.45;100.00;95039.75;5072656;28;20726;-59
2022/11/15 01:21:14;;;;;;;54.47;30.60;;;;;;;6.43;100.00;95042.38;5072841;28;20254;-59
2022/11/15 01:23:39;;;;;;;62.60;32.37;;;;;;;6.44;100.00;95046.53;5072714;28;20246;-63
2022/11/15 01:26:06;;;;;;;55.27;32.37;;;;;;;6.43;100.00;95039.84;5072728;28;20181;-68
2022/11/15 01:28:33;;;;;;;62.77;32.73;;;;;;;6.41;100.00;95024.00;5072741;28;20185;-58
2022/11/15 01:31:04;;;;;;;59.33;33.40;;;;;;;6.47;100.00;95031.19;5072920;28;20777;-62
2022/11/15 01:33:30;;;;;;;54.60;32.57;;;;;;;6.48;100.00;95032.00;5072703;28;20201;-61
2022/11/15 01:35:55;;;;;;;57.60;31.30;;;;;;;6.49;100.00;95028.56;5073034;28;20204;-62
2022/11/15 01:38:22;;;;;;;58.43;32.53;;;;;;;6.42;100.00;95038.22;5072776;28;20226;-62
2022/11/15 01:40:48;;;;;;;53.70;32.27;;;;;;;6.35;100.00;95019.31;5072944;28;20227;-61
2022/11/15 01:43:22;;;;;;;60.23;34.10;;;;;;;6.31;100.00;95025.47;5072527;28;20196;-60
2022/11/15 01:46:29;;;;;;;59.93;33.00;;;;;;;6.63;100.00;95079.00;5072507;28;20294;-61
2022/11/15 01:48:59;;;;;;;59.73;33.80;;;;;;;6.53;100.00;95077.97;5061319;28;20226;-61
2022/11/15 01:51:28;;;;;;;52.13;31.30;;;;;;;6.34;100.00;95055.56;5071501;28;20216;-60
2022/11/15 01:53:58;;;;;;;52.10;30.67;;;;;;;6.25;100.00;95023.31;5054274;28;20188;-62
2022/11/15 01:56:27;;;;;;;63.23;35.10;;;;;;;6.08;100.00;94979.84;5072244;28;20192;-59
2022/11/15 01:58:56;;;;;;;60.17;34.73;;;;;;;6.04;100.00;94966.59;5072170;28;20185;-63
2022/11/15 02:01:25;;;;;;;59.77;33.37;;;;;;;6.06;100.00;94974.88;5072332;28;20218;-59
2022/11/15 02:04:03;;;;;;;63.47;33.57;;;;;;;6.08;100.00;94985.69;5071961;28;20258;-61
2022/11/15 02:06:29;;;;;;;60.10;32.23;;;;;;;6.30;100.00;95007.91;5072783;28;20654;-62
2022/11/15 02:08:56;;;;;;;59.60;31.33;;;;;;;6.35;100.00;95042.03;5072022;28;20184;-61
2022/11/15 02:11:21;;;;;;;55.47;31.33;;;;;;;6.32;100.00;95047.28;5071948;28;20211;-59
2022/11/15 02:13:47;;;;;;;56.67;32.27;;;;;;;6.01;100.00;95003.84;5053680;28;20188;-61
2022/11/15 02:16:35;;;;;;;58.50;31.63;;;;;;;6.03;100.00;95012.13;5072104;28;20193;-60
2022/11/15 02:19:28;;;;;;;59.77;33.57;;;;;;;5.98;100.00;95006.56;5071955;28;20201;-61
2022/11/15 02:22:38;;;;;;;62.43;32.87;;;;;;;5.88;100.00;94986.91;5072001;28;20189;-62
2022/11/15 02:25:37;;;;;;;55.90;30.93;;;;;;;5.97;100.00;94987.25;5040706;28;20261;-61
2022/11/15 02:28:14;;;;;;;59.47;31.47;;;;;;;6.02;100.00;94987.81;5072025;28;20542;-63
2022/11/15 02:31:00;;;;;;;57.03;33.40;;;;;;;6.05;100.00;94998.50;5071688;28;20226;-61
2022/11/15 02:33:50;;;;;;;58.53;31.83;;;;;;;6.00;100.00;94994.66;5071903;28;20566;-63
2022/11/15 02:36:30;;;;;;;60.77;33.80;;;;;;;5.96;100.00;94998.28;5071802;28;20642;-62
2022/11/15 02:39:00;;;;;;;60.90;31.17;;;;;;;6.00;100.00;95014.84;5071777;28;20259;-61
2022/11/15 02:41:55;;;;;;;64.23;33.10;;;;;;;5.93;100.00;95001.78;5071710;28;20192;-61
2022/11/15 02:44:33;;;;;;;56.60;31.50;;;;;;;5.90;100.00;95002.78;5071785;28;20201;-63
2022/11/15 02:47:13;;;;;;;53.43;30.73;;;;;;;5.87;100.00;95004.69;5037380;28;20192;-59
2022/11/15 02:49:41;;;;;;;58.30;30.37;;;;;;;5.85;100.00;95011.53;5071602;28;20681;-63
2022/11/15 02:52:08;;;;;;;60.33;32.53;;;;;;;5.87;100.00;95017.28;5071259;28;20615;-60
2022/11/15 02:54:34;;;;;;;63.20;32.97;;;;;;;5.86;100.00;95018.19;5071307;28;20208;-63
2022/11/15 02:57:04;;;;;;;59.23;30.67;;;;;;;5.94;100.00;95013.47;5071258;28;20204;-59
2022/11/15 02:59:54;;;;;;;52.73;30.80;;;;;;;6.01;100.00;95024.00;5071174;28;20283;-63
2022/11/15 03:02:19;;;;;;;56.67;30.03;;;;;;;6.23;100.00;95075.63;5052670;28;20246;-62
2022/11/15 03:04:58;;;;;;;67.37;33.37;;;;;;;6.10;100.00;95058.81;5053135;28;20689;-61
2022/11/15 03:07:23;;;;;;;62.23;35.17;;;;;;;5.90;100.00;95030.53;5071179;28;20549;-59
2022/11/15 03:10:10;;;;;;;71.60;36.43;;;;;;;5.71;100.00;95009.00;5071075;28;20208;-62
2022/11/15 03:12:43;;;;;;;83.53;41.80;;;;;;;5.55;100.00;94999.03;5052980;28;20282;-61
2022/11/15 03:15:17;;;;;;;75.87;38.67;;;;;;;5.44;100.00;94981.19;5071320;28;20728;-61
2022/11/15 03:17:55;;;;;;;83.50;41.17;;;;;;;5.50;100.00;94980.84;5071637;28;20191;-63
2022/11/15 03:20:21;;;;;;;67.43;36.07;;;;;;;5.61;100.00;94988.56;5071278;28;20216;-61
2022/11/15 03:22:48;;;;;;;66.53;36.97;;;;;;;5.63;100.00;94996.88;5053125;28;20326;-60
2022/11/15 03:25:20;;;;;;;76.30;38.53;;;;;;;5.69;100.00;94998.19;5071212;28;20713;-63
2022/11/15 03:27:50;;;;;;;69.63;39.03;;;;;;;5.60;100.00;94986.94;5071061;28;20253;-62
2022/11/15 03:30:16;;;;;;;64.73;36.83;;;;;;;5.61;100.00;94983.53;5071079;28;20205;-62
2022/11/15 03:32:46;;;;;;;57.83;34.67;;;;;;;6.00;100.00;95040.88;5070752;28;20254;-63
2022/11/15 03:35:19;;;;;;;71.43;37.80;;;;;;;5.77;100.00;95021.25;5070923;28;20576;-62
2022/11/15 03:37:53;;;;;;;70.77;39.27;;;;;;;5.75;100.00;95010.44;5070681;28;20180;-63
2022/11/15 03:40:25;;;;;;;71.00;39.33;;;;;;;5.93;100.00;95055.59;5070678;28;20212;-63
2022/11/15 03:43:04;;;;;;;57.50;34.10;;;;;;;5.84;100.00;95050.25;5070833;28;20199;-59
2022/11/15 03:45:40;;;;;;;69.10;37.33;;;;;;;5.58;100.00;95024.03;5052856;28;20218;-62
2022/11/15 03:48:14;;;;;;;56.73;30.97;;;;;;;5.60;100.00;95039.91;5070744;28;20472;-61
2022/11/15 03:50:41;;;;;;;53.10;30.57;;;;;;;5.52;100.00;95023.59;5070967;28;20253;-62
2022/11/15 03:53:07;;;;;;;50.83;28.83;;;;;;;5.31;100.00;94982.03;5070440;28;20272;-60
2022/11/15 03:55:33;;;;;;;45.23;27.87;;;;;;;5.31;100.00;94992.91;5052498;28;20216;-60
2022/11/15 03:58:00;;;;;;;42.47;26.43;;;;;;;5.28;100.00;94972.94;5070597;28;20684;-62
2022/11/15 04:00:27;;;;;;;41.43;26.60;;;;;;;5.04;100.00;94950.00;5070636;28;20206;-61
2022/11/15 04:02:52;;;;;;;36.83;23.33;;;;;;;4.93;100.00;94937.19;5070259;28;20200;-64
2022/11/15 04:05:18;;;;;;;34.03;19.43;;;;;;;4.89;100.00;94924.88;5070743;28;20212;-60
2022/11/15 04:07:43;;;;;;;41.83;24.57;;;;;;;5.13;100.00;94972.09;5052489;28;20198;-60
2022/11/15 04:10:11;;;;;;;36.13;22.80;;;;;;;5.05;100.00;94984.34;5070281;28;20276;-62
2022/11/15 04:12:42;;;;;;;34.10;23.63;;;;;;;4.95;100.00;95002.59;5070355;28;20700;-61
2022/11/15 04:15:11;;;;;;;36.27;23.60;;;;;;;4.66;100.00;94985.81;5039529;28;20242;-61
2022/11/15 04:17:48;;;;;;;35.43;23.03;;;;;;;4.42;100.00;94954.47;5073951;28;20571;-62
2022/11/15 04:26:01;;;;;;;39.53;22.77;;;;;;;4.20;100.00;94917.91;5073546;28;20225;-59
2022/11/15 04:28:27;;;;;;;37.87;22.37;;;;;;;4.16;100.00;94913.16;5073683;28;20190;-60
2022/11/15 04:30:54;;;;;;;39.87;23.43;;;;;;;4.03;100.00;94914.72;5073303;28;20194;-59
2022/11/15 04:33:21;;;;;;;44.27;25.30;;;;;;;3.97;100.00;94925.94;5073495;28;20199;-58
2022/11/15 04:37:11;;;;;;;48.57;24.47;;;;;;;3.95;100.00;94929.44;5074020;28;20200;-63
2022/11/15 04:38:31;;;;;;;64.43;26.00;;;;;;;4.01;100.00;94931.59;5073372;28;20654;-61
2022/11/15 04:40:57;;;;;;;47.20;24.73;;;;;;;3.86;100.00;94939.97;5073496;28;20287;-61
2022/11/15 04:43:22;;;;;;;50.97;26.73;;;;;;;4.00;100.00;94940.06;5055412;28;20200;-58
2022/11/15 04:45:48;;;;;;;45.33;24.07;;;;;;;4.12;100.00;94934.34;5073185;28;20292;-61
2022/11/15 04:48:13;;;;;;;57.40;24.20;;;;;;;4.36;100.00;94933.00;5073155;28;20202;-62
2022/11/15 04:50:38;;;;;;;46.23;24.73;;;;;;;4.46;100.00;94938.31;5073300;28;20299;-61
2022/11/15 04:53:04;;;;;;;48.77;24.90;;;;;;;4.28;100.00;94937.66;5073160;28;20225;-61
2022/11/15 04:55:29;;;;;;;47.03;25.30;;;;;;;4.35;100.00;94941.41;5073356;28;20341;-62
2022/11/15 04:57:59;;;;;;;43.13;21.47;;;;;;;4.55;100.00;94943.63;5073173;28;20190;-60
2022/11/15 05:00:25;;;;;;;44.00;21.83;;;;;;;4.55;100.00;94946.16;5073390;28;20217;-62
2022/11/15 05:05:35;;;;;;;42.97;20.77;;;;;;;4.53;100.00;94950.44;5073250;28;20266;-60
2022/11/15 05:08:00;;;;;;;38.73;20.87;;;;;;;4.53;100.00;94950.44;5073079;28;20196;-62
2022/11/15 05:10:25;;;;;;;48.53;21.90;;;;;;;4.51;100.00;94943.88;5072823;28;20230;-60
2022/11/15 05:12:51;;;;;;;40.70;20.70;;;;;;;4.75;100.00;94939.97;5073109;28;20211;-58
2022/11/15 05:15:16;;;;;;;42.90;21.77;;;;;;;4.81;100.00;94949.69;5054906;28;20218;-63
2022/11/15 05:17:41;;;;;;;50.27;21.10;;;;;;;4.83;100.00;94951.22;5073103;28;20660;-63
2022/11/15 05:20:07;;;;;;;67.90;19.37;;;;;;;4.76;100.00;94951.66;5073232;28;20212;-59
2022/11/15 05:22:33;;;;;;;45.67;17.13;;;;;;;4.78;100.00;94947.34;5072807;28;20199;-60
2022/11/15 05:24:58;;;;;;;42.00;18.60;;;;;;;4.85;100.00;94946.91;5072510;28;20208;-61
2022/11/15 05:27:24;;;;;;;49.07;21.37;;;;;;;4.97;100.00;94946.19;5072891;28;20221;-62
2022/11/15 05:29:49;;;;;;;55.70;23.50;;;;;;;5.05;100.00;94954.09;5054710;28;20270;-63
2022/11/15 05:32:16;;;;;;;43.50;21.67;;;;;;;5.17;100.00;94954.31;5054887;28;20222;-63
2022/11/15 05:34:42;;;;;;;42.00;20.57;;;;;;;5.38;100.00;94946.28;5072942;28;20726;-61
2022/11/15 05:37:08;;;;;;;42.20;20.13;;;;;;;5.72;100.00;94952.59;5072644;28;20282;-61
2022/11/15 05:39:33;;;;;;;43.83;21.03;;;;;;;5.63;100.00;94954.00;5072574;28;20273;-61
2022/11/15 05:42:09;;;;;;;48.03;21.27;;;;;;;5.46;100.00;94946.63;5072276;28;20188;-59
2022/11/15 05:44:36;;;;;;;41.67;20.93;;;;;;;5.10;100.00;94934.50;5072473;28;20703;-59
2022/11/15 05:47:04;;;;;;;36.97;16.27;;;;;;;5.04;100.00;94952.50;5072185;28;20188;-59
2022/11/15 05:49:34;;;;;;;31.07;14.70;;;;;;;5.19;100.00;94955.03;5072166;28;20204;-59
2022/11/15 05:51:59;;;;;;;49.00;16.27;;;;;;;5.07;100.00;94961.56;5054200;28;20227;-59
2022/11/15 05:54:25;;;;;;;28.00;14.03;;;;;;;4.87;100.00;94949.31;5072028;28;20669;-59
2022/11/15 05:56:51;;;;;;;21.87;12.17;;;;;;;4.84;100.00;94957.06;5072232;28;20206;-60
2022/11/15 05:59:18;;;;;;;22.77;12.60;;;;;;;4.93;100.00;94954.00;5072139;28;20267;-60
2022/11/15 06:01:43;;;;;;;24.60;12.83;;;;;;;4.84;100.00;94957.06;5072221;28;20213;-60
2022/11/15 06:04:08;;;;;;;21.27;11.63;;;;;;;4.81;100.00;94959.75;5072141;28;20214;-61
2022/11/15 06:06:34;;;;;;;23.60;11.83;;;;;;;4.68;100.00;94954.63;5054161;28;20203;-59
2022/11/15 06:08:59;;;;;;;24.00;12.43;;;;;;;4.58;100.00;94956.06;5072317;28;20209;-60
2022/11/15 06:11:25;;;;;;;23.07;12.83;;;;;;;4.67;100.00;94960.56;5072041;28;20220;-60
2022/11/15 06:13:50;;;;;;;25.10;13.00;;;;;;;5.06;100.00;94972.56;5071928;28;20187;-59
2022/11/15 06:16:16;;;;;;;22.73;12.30;;;;;;;4.99;100.00;94969.59;5054588;28;20193;-59
2022/11/15 06:18:41;;;;;;;22.23;12.63;;;;;;;5.05;100.00;94959.16;5071894;28;20655;-62
2022/11/15 06:21:07;;;;;;;19.63;11.00;;;;;;;5.74;100.00;94961.69;5072012;28;20547;-61
2022/11/15 06:23:34;;;;;;;30.07;15.43;;;;;;;6.58;100.00;94965.66;5072152;28;20200;-62
2022/11/15 06:26:02;;;;;;;26.83;14.50;;;;;;;6.49;100.00;94956.13;5071463;28;20212;-62
2022/11/15 06:28:32;;;;;;;23.90;13.43;;;;;;;6.63;100.00;94953.53;5071917;28;20188;-61
2022/11/15 06:31:06;;;;;;;22.90;13.77;;;;;;;6.31;100.00;94964.88;5053950;28;20680;-64
2022/11/15 06:33:31;;;;;;;25.30;13.77;;;;;;;6.05;100.00;94972.47;5072124;28;20253;-60
2022/11/15 06:36:04;;;;;;;27.97;13.90;;;;;;;6.19;100.00;95015.31;5071035;28;20216;-62
2022/11/15 06:38:30;;;;;;;25.43;13.97;;;;;;;5.93;100.00;94979.06;5053849;28;20277;-62
2022/11/15 06:41:01;;;;;;;32.73;16.00;;;;;;;5.79;100.00;94967.28;5053639;28;20302;-60
2022/11/15 06:43:27;;;;;;;34.53;17.63;;;;;;;5.70;100.00;94977.91;5071789;28;20576;-61
2022/11/15 06:45:52;;;;;;;31.33;16.40;;;;;;;5.59;100.00;94971.91;5071933;28;20200;-60
2022/11/15 06:48:17;;;;;;;35.23;17.07;;;;;;;6.53;100.00;94955.03;5071417;28;20219;-60
2022/11/15 06:50:49;;;;;;;34.37;16.70;;;;;;;6.55;100.00;95002.91;5071702;28;20262;-61
2022/11/15 06:53:15;;;;;;;35.17;18.60;;;;;;;6.27;100.00;94995.44;5071413;28;20269;-60
2022/11/15 06:55:40;;;;;;;33.60;19.73;;;;;;;6.11;100.00;94997.31;5071171;28;20682;-60
2022/11/15 06:58:05;;;;;;;36.57;19.77;;;;;;;5.83;100.00;94967.91;5071336;28;20674;-63
2022/11/15 07:00:31;;;;;;;36.63;19.07;;;;;;;7.17;100.00;94950.84;5071167;28;20223;-60
2022/11/15 07:03:00;;;;;;;34.53;19.17;;;;;;;7.70;100.00;95039.09;5071124;28;20280;-63
2022/11/15 07:05:26;;;;;;;38.57;20.77;;;;;;;7.20;100.00;95029.00;5071463;28;20227;-62
2022/11/15 07:07:56;;;;;;;35.37;20.00;;;;;;;7.10;100.00;94920.09;5071024;28;20654;-62
2022/11/15 07:10:24;;;;;;;38.13;19.90;;;;;;;8.85;100.00;94947.34;5071348;28;20204;-62
2022/11/15 07:12:53;;;;;;;36.00;18.73;;;;;;;10.22;100.00;94999.53;5071088;28;20212;-61
2022/11/15 07:15:20;;;;;;;48.77;23.13;;;;;;;10.06;100.00;95109.88;5071291;28;20217;-61
2022/11/15 07:17:46;;;;;;;40.70;22.57;;;;;;;9.63;100.00;95169.84;5071063;28;20263;-61
2022/11/15 07:20:13;;;;;;;54.53;23.87;;;;;;;9.03;100.00;95123.53;5071015;28;20247;-64
2022/11/15 07:22:39;;;;;;;48.93;23.93;;;;;;;8.16;100.00;95040.09;5070978;28;20299;-61
2022/11/15 07:25:05;;;;;;;47.17;23.73;;;;;;;7.52;100.00;94964.44;5070752;28;20349;-60
2022/11/15 07:27:30;;;;;;;46.73;22.77;;;;;;;7.33;100.00;94967.38;5070830;28;20693;-60
2022/11/15 07:29:56;;;;;;;41.00;22.23;;;;;;;7.05;100.00;94951.66;5071049;28;20682;-61
2022/11/15 07:32:21;;;;;;;43.23;22.13;;;;;;;6.85;100.00;94927.69;5070628;28;20232;-60
2022/11/15 07:34:47;;;;;;;39.13;21.63;;;;;;;6.46;100.00;94923.53;5071040;28;20286;-62
2022/11/15 07:37:12;;;;;;;41.30;22.67;;;;;;;6.70;100.00;94953.97;5071083;28;20339;-59
2022/11/15 07:39:38;;;;;;;41.53;21.57;;;;;;;6.56;100.00;94949.81;5071130;28;20208;-63
2022/11/15 07:44:47;;;;;;;43.33;22.73;;;;;;;5.77;100.00;94927.94;5070983;28;20216;-61
2022/11/15 07:47:13;;;;;;;47.57;24.90;;;;;;;5.34;100.00;94932.25;5070682;28;20187;-61
2022/11/15 07:49:38;;;;;;;48.60;24.03;;;;;;;5.50;100.00;94942.19;5070848;28;20227;-62
2022/11/15 07:52:04;;;;;;;42.93;23.43;;;;;;;5.54;100.00;94938.59;5059426;23;20227;-61
2022/11/15 07:54:29;;;;;;;44.03;22.97;;;;;;;5.66;100.00;94946.22;5052349;28;20220;-64
2022/11/15 07:56:55;;;;;;;46.70;24.73;;;;;;;5.82;100.00;94941.03;5070775;28;20181;-62
2022/11/15 07:59:20;;;;;;;50.90;26.67;;;;;;;5.87;100.00;94944.13;5070374;28;20217;-60
2022/11/15 08:01:46;;;;;;;54.07;26.00;;;;;;;5.95;100.00;94949.53;5070956;28;20196;-61
2022/11/15 08:04:11;;;;;;;52.80;26.13;;;;;;;6.18;100.00;94963.22;5052390;28;20647;-61
2022/11/15 08:06:37;;;;;;;52.77;27.53;;;;;;;6.25;100.00;94977.06;5070557;28;20199;-59
2022/11/15 08:09:03;;;;;;;63.53;29.23;;;;;;;6.11;100.00;94949.38;5052055;28;20216;-60
2022/11/15 08:11:28;;;;;;;55.30;30.13;;;;;;;6.00;100.00;94950.03;5070326;28;20224;-60
2022/11/15 08:13:54;;;;;;;56.80;29.83;;;;;;;5.97;100.00;94930.06;5070097;28;20228;-61
2022/11/15 08:16:19;;;;;;;52.17;27.90;;;;;;;5.88;100.00;94946.56;5070134;28;20200;-61
2022/11/15 08:18:44;;;;;;;49.37;27.07;;;;;;;5.81;100.00;94935.22;5070055;28;20199;-60
2022/11/15 08:21:14;;;;;;;48.53;26.67;;;;;;;5.87;100.00;94929.00;5069741;28;20286;-62
2022/11/15 08:23:39;;;;;;;50.73;26.40;;;;;;;6.06;100.00;94938.75;5050464;28;20184;-59
2022/11/15 08:26:05;;;;;;;51.53;28.03;;;;;;;6.14;100.00;94955.03;5068655;28;20200;-64
2022/11/15 08:28:32;;;;;;;46.13;26.13;;;;;;;5.99;100.00;94927.44;5052193;28;20258;-63
2022/11/15 08:30:57;;;;;;;50.03;27.17;;;;;;;5.78;100.00;94914.41;5069889;28;20745;-61
2022/11/15 08:33:23;;;;;;;56.20;29.90;;;;;;;5.61;100.00;94910.41;5070042;28;20219;-61
2022/11/15 08:35:49;;;;;;;58.33;28.50;;;;;;;5.90;100.00;94934.66;5070009;28;20217;-60
2022/11/15 08:38:14;;;;;;;49.87;28.20;;;;;;;5.79;100.00;94928.63;5070354;28;20189;-61
2022/11/15 08:40:40;;;;;;;52.07;27.83;;;;;;;6.06;100.00;94929.47;5070035;28;20332;-62
2022/11/15 08:43:05;;;;;;;56.23;29.77;;;;;;;6.02;100.00;94938.13;5070088;28;20184;-60
2022/11/15 08:45:33;;;;;;;56.20;29.77;;;;;;;6.17;100.00;94934.66;5069993;28;20208;-59
2022/11/15 08:48:01;;;;;;;53.27;28.90;;;;;;;6.24;100.00;94940.13;5069891;28;20179;-63
2022/11/15 08:50:26;;;;;;;56.20;29.03;;;;;;;6.12;100.00;94924.03;5051600;28;20351;-61
2022/11/15 08:52:52;;;;;;;58.67;29.93;;;;;;;6.30;100.00;94917.81;5069771;28;20270;-62
2022/11/15 08:55:17;;;;;;;53.93;29.90;;;;;;;6.60;100.00;94931.00;5069783;28;20536;-60
2022/11/15 08:57:43;;;;;;;50.67;28.17;;;;;;;6.96;100.00;94959.81;5069745;28;20267;-65
2022/11/15 09:00:09;;;;;;;51.13;27.77;;;;;;;7.17;100.00;94978.66;5071548;28;20236;-62
2022/11/15 09:02:34;;;;;;;49.33;26.90;;;;;;;7.20;100.00;94966.59;5054762;28;20193;-61
2022/11/15 09:04:59;;;;;;;50.37;27.77;;;;;;;7.21;100.00;94958.09;5073105;28;20219;-61
2022/11/15 09:07:25;;;;;;;58.10;29.93;;;;;;;7.34;100.00;94976.59;5054999;28;20222;-62
2022/11/15 09:09:51;;;;;;;59.03;29.57;;;;;;;7.35;100.00;94970.63;5038272;28;20211;-61
2022/11/15 09:12:16;;;;;;;56.33;29.53;;;;;;;7.32;100.00;94957.38;5072966;28;20292;-61
2022/11/15 09:14:41;;;;;;;58.03;30.13;;;;;;;7.20;100.00;94950.63;5072774;28;20205;-60
2022/11/15 09:17:08;;;;;;;54.93;29.70;;;;;;;7.24;100.00;94942.72;5072836;28;20242;-61
2022/11/15 09:19:34;;;;;;;56.40;31.00;;;;;;;7.20;100.00;94900.06;5054810;28;20617;-59
2022/11/15 09:22:00;;;;;;;59.93;32.63;;;;;;;7.32;100.00;94916.94;5072784;28;20253;-60
2022/11/15 09:24:25;;;;;;;62.10;32.13;;;;;;;7.20;100.00;94911.00;5072806;28;20201;-60
2022/11/15 09:26:51;;;;;;;60.90;32.60;;;;;;;7.21;100.00;94894.09;5072479;28;20193;-64
2022/11/15 09:29:18;;;;;;;58.43;31.67;;;;;;;7.31;100.00;94902.69;5072793;28;20209;-62
2022/11/15 09:31:43;;;;;;;57.13;28.97;;;;;;;7.45;100.00;94905.06;5073219;28;20281;-63
2022/11/15 09:34:09;;;;;;;58.27;30.23;;;;;;;7.71;100.00;94898.22;5072580;28;20678;-64
2022/11/15 09:36:34;;;;;;;61.07;31.17;;;;;;;7.96;100.00;94936.09;5072942;28;20272;-63
2022/11/15 09:39:00;;;;;;;56.90;31.83;;;;;;;8.22;100.00;94952.78;5054323;28;20217;-62
2022/11/15 09:41:50;;;;;;;54.90;30.80;;;;;;;8.34;100.00;94957.00;5071751;28;20700;-63
2022/11/15 09:44:24;;;;;;;54.27;29.70;;;;;;;8.48;100.00;94988.97;5072343;28;20232;-64
2022/11/15 09:47:01;;;;;;;55.57;29.43;;;;;;;8.48;100.00;94954.31;5071899;28;20199;-63
2022/11/15 09:49:29;;;;;;;56.73;31.30;;;;;;;8.81;100.00;95001.72;5070189;28;20284;-60
2022/11/15 09:51:55;;;;;;;61.33;32.70;;;;;;;8.87;100.00;94991.16;5071190;28;20743;-61
2022/11/15 09:54:27;;;;;;;59.83;31.87;;;;;;;9.13;100.00;94978.19;5072648;28;20672;-63
2022/11/15 09:56:53;;;;;;;65.60;31.30;;;;;;;9.68;100.00;95010.41;5072779;28;20197;-63
2022/11/15 09:59:48;;;;;;;50.13;29.37;;;;;;;10.02;100.00;95014.53;5072170;28;20227;-61
2022/11/15 10:02:32;;;;;;;52.93;29.27;;;;;;;10.53;100.00;95047.00;5054477;28;20192;-60
2022/11/15 10:05:00;;;;;;;52.97;29.63;;;;;;;11.05;100.00;95090.28;5072230;28;20215;-63
2022/11/15 10:07:34;;;;;;;53.10;31.40;;;;;;;11.60;100.00;95112.94;5072081;28;20231;-62
2022/11/15 10:10:27;;;;;;;52.80;29.67;;;;;;;11.92;100.00;95145.22;5071629;28;20209;-60
2022/11/15 10:12:53;;;;;;;48.40;31.10;;;;;;;11.90;100.00;95130.03;5071503;28;20690;-63
2022/11/15 10:15:22;;;;;;;55.70;29.63;;;;;;;12.25;100.00;95155.16;5071891;28;20263;-62
2022/11/15 10:18:28;;;;;;;48.13;29.53;;;;;;;12.55;100.00;95172.97;5071833;28;20686;-61
2022/11/15 10:20:59;;;;;;;55.60;30.37;;;;;;;12.72;100.00;95115.44;5041898;28;20244;-64
2022/11/15 10:23:26;;;;;;;60.73;30.93;;;;;;;12.80;100.00;95166.63;5071384;28;20174;-63
2022/11/15 10:25:58;;;;;;;52.57;30.53;;;;;;;12.96;99.90;95154.16;5069619;28;20705;-60
2022/11/15 10:28:29;;;;;;;56.03;32.67;;;;;;;13.17;99.54;95155.69;5052017;28;20180;-61
2022/11/15 10:31:00;;;;;;;58.93;32.80;;;;;;;13.40;96.15;95217.53;5071551;28;20250;-61
2022/11/15 10:33:29;;;;;;;58.07;33.70;;;;;;;13.45;96.97;95182.19;5071727;28;20224;-61
2022/11/15 10:36:23;;;;;;;54.87;32.90;;;;;;;13.62;96.25;95184.06;5071753;28;20211;-62
2022/11/15 10:38:49;;;;;;;56.40;33.58;;;;;;;13.76;95.40;95187.94;5069104;28;20224;-62
2022/11/15 10:41:15;;;;;;;57.83;34.00;;;;;;;13.71;95.69;95167.13;5053587;28;20224;-64
2022/11/15 10:43:41;;;;;;;62.83;34.30;;;;;;;13.75;95.83;95148.03;5071529;28;20531;-63
2022/11/15 10:46:21;;;;;;;55.97;33.22;;;;;;;13.72;95.10;95161.06;5071258;28;20196;-62
2022/11/15 10:48:47;;;;;;;56.00;32.15;;;;;;;13.69;95.71;95139.16;5053650;28;20646;-61
2022/11/15 10:51:25;;;;;;;51.10;31.33;;;;;;;13.60;95.55;95123.81;5071531;28;20188;-61
2022/11/15 10:53:51;;;;;;;56.17;33.07;;;;;;;13.67;95.37;95124.91;5071611;28;20185;-59
2022/11/15 10:56:21;;;;;;;53.17;31.10;;;;;;;13.52;94.97;95131.38;5071564;28;20199;-59
2022/11/15 10:58:57;;;;;;;54.03;30.57;;;;;;;13.48;96.28;95102.75;5071280;28;20177;-63
2022/11/15 11:01:24;;;;;;;53.33;31.23;;;;;;;13.44;95.26;95117.53;5071581;28;20631;-60
2022/11/15 11:04:07;;;;;;;55.85;31.77;;;;;;;13.31;96.54;95071.03;5071039;28;20173;-62
2022/11/15 11:06:57;;;;;;;57.37;31.53;;;;;;;13.09;97.23;95048.34;5071482;28;20193;-62
2022/11/15 11:09:33;;;;;;;62.63;34.27;;;;;;;13.14;97.78;95018.13;5070999;28;20682;-61
2022/11/15 11:12:00;;;;;;;53.07;33.33;;;;;;;13.10;97.93;95019.34;5071216;28;20269;-61
2022/11/15 11:14:31;;;;;;;52.57;31.57;;;;;;;13.06;97.73;95027.41;5071160;28;20737;-61
2022/11/15 11:17:08;;;;;;;55.00;31.20;;;;;;;12.90;98.24;94999.03;5071155;28;20206;-63
2022/11/15 11:20:13;;;;;;;56.57;32.33;;;;;;;12.90;98.89;94983.72;5070971;28;20779;-63
2022/11/15 11:23:00;;;;;;;55.37;31.10;;;;;;;13.00;98.05;95000.66;5070559;28;20590;-63
2022/11/15 11:25:38;;;;;;;60.57;34.43;;;;;;;13.06;98.95;94984.81;5068600;28;20213;-59
2022/11/15 11:28:09;;;;;;;65.43;35.73;;;;;;;13.30;97.35;95015.00;5068558;28;20267;-61
2022/11/15 11:30:58;;;;;;;54.47;35.08;;;;;;;13.48;97.19;95009.06;5070523;28;20221;-64
2022/11/15 11:33:44;;;;;;;61.33;35.27;;;;;;;13.70;96.14;95030.91;5070842;28;20185;-63
2022/11/15 11:36:09;;;;;;;57.85;33.80;;;;;;;13.88;95.40;95042.00;5070887;28;20662;-62
2022/11/15 11:38:57;;;;;;;60.03;34.60;;;;;;;13.40;96.05;95010.69;5070870;28;20234;-61